Terminal Aerodrome Forecast
Issued by NWS

Current Version | Previous Version | Text Only | Print | Product List | Glossary On
Versions: 1 2 3 4 5 6 7 8 9 10 11 12 13 14 15
490
FTUS46 KSEW 270237 AAA
TAFHQM
TAF AMD
KHQM 270237Z 2703/2724 26012KT 5SM HZ BKN014
     FM270400 27007KT 5SM BR OVC012
     FM271000 00000KT 3SM BR OVC005
     FM271700 19005KT 5SM BR BKN015
     FM272000 24012KT P6SM SCT025=

USA.gov is the U.S. government's official web portal to all federal, state and local government web resources and services.